sensor_id;sensor_type;location;lat;lon;timestamp;pressure;altitude;pressure_sealevel;temperature;humidity
13836;BME280;6988;52.614;13.500;2023-05-10T00:02:14;54298.97;;;-143.77;66.02
13836;BME280;6988;52.614;13.500;2023-05-10T00:07:06;54280.53;;;-143.77;66.10
13836;BME280;6988;52.614;13.500;2023-05-10T00:11:57;54290.78;;;-143.77;66.52
13836;BME280;6988;52.614;13.500;2023-05-10T00:16:51;54305.13;;;-143.77;67.07
13836;BME280;6988;52.614;13.500;2023-05-10T00:21:43;54311.28;;;-143.77;67.12
13836;BME280;6988;52.614;13.500;2023-05-10T00:33:08;54331.81;;;-143.77;68.42
13836;BME280;6988;52.614;13.500;2023-05-10T00:38:00;54342.06;;;-143.77;68.63
13836;BME280;6988;52.614;13.500;2023-05-10T00:42:52;54329.75;;;-143.77;68.50
13836;BME280;6988;52.614;13.500;2023-05-10T00:47:44;54317.44;;;-143.77;68.34
13836;BME280;6988;52.614;13.500;2023-05-10T00:52:37;54335.91;;;-143.77;68.22
13836;BME280;6988;52.614;13.500;2023-05-10T00:57:29;54301.03;;;-143.77;67.50
13836;BME280;6988;52.614;13.500;2023-05-10T01:02:21;54319.50;;;-143.77;67.43
13836;BME280;6988;52.614;13.500;2023-05-10T01:07:12;54294.88;;;-143.77;67.08
13836;BME280;6988;52.614;13.500;2023-05-10T01:12:06;54298.97;;;-143.77;67.14
13836;BME280;6988;52.614;13.500;2023-05-10T01:17:00;54294.88;;;-143.77;67.25
13836;BME280;6988;52.614;13.500;2023-05-10T01:22:02;54298.97;;;-143.77;67.35
13836;BME280;6988;52.614;13.500;2023-05-10T01:27:21;54294.88;;;-143.77;66.92
13836;BME280;6988;52.614;13.500;2023-05-10T01:32:29;54327.72;;;-143.77;66.81
13836;BME280;6988;52.614;13.500;2023-05-10T01:37:34;54305.13;;;-143.77;66.32
13836;BME280;6988;52.614;13.500;2023-05-10T01:42:40;54309.25;;;-143.77;66.37
13836;BME280;6988;52.614;13.500;2023-05-10T01:47:42;54298.97;;;-143.77;66.40
13836;BME280;6988;52.614;13.500;2023-05-10T01:52:42;54290.78;;;-143.77;66.10
13836;BME280;6988;52.614;13.500;2023-05-10T01:57:38;54321.56;;;-143.77;65.94
13836;BME280;6988;52.614;13.500;2023-05-10T02:02:36;54327.72;;;-143.77;65.94
13836;BME280;6988;52.614;13.500;2023-05-10T02:07:30;54286.69;;;-143.77;65.67
13836;BME280;6988;52.614;13.500;2023-05-10T02:12:24;54294.88;;;-143.77;65.50
13836;BME280;6988;52.614;13.500;2023-05-10T02:17:19;54321.56;;;-143.77;65.56
13836;BME280;6988;52.614;13.500;2023-05-10T02:22:17;54305.13;;;-143.77;65.45
13836;BME280;6988;52.614;13.500;2023-05-10T02:27:12;54321.56;;;-143.77;65.84
13836;BME280;6988;52.614;13.500;2023-05-10T02:32:09;54319.50;;;-143.77;65.97
13836;BME280;6988;52.614;13.500;2023-05-10T02:37:03;54294.88;;;-143.77;65.87
13836;BME280;6988;52.614;13.500;2023-05-10T02:41:59;54321.56;;;-143.77;66.03
13836;BME280;6988;52.614;13.500;2023-05-10T02:46:52;54307.19;;;-143.77;66.14
13836;BME280;6988;52.614;13.500;2023-05-10T02:51:51;54333.88;;;-143.77;65.83
13836;BME280;6988;52.614;13.500;2023-05-10T02:56:59;54290.78;;;-143.77;65.70
13836;BME280;6988;52.614;13.500;2023-05-10T03:01:53;54325.66;;;-143.77;65.66
13836;BME280;6988;52.614;13.500;2023-05-10T03:06:45;54325.66;;;-143.77;66.03
13836;BME280;6988;52.614;13.500;2023-05-10T03:11:53;54311.28;;;-143.77;66.11
13836;BME280;6988;52.614;13.500;2023-05-10T03:16:58;54331.81;;;-143.77;66.30
13836;BME280;6988;52.614;13.500;2023-05-10T03:21:53;54329.75;;;-143.77;66.45
13836;BME280;6988;52.614;13.500;2023-05-10T03:26:55;54344.13;;;-143.77;66.60
13836;BME280;6988;52.614;13.500;2023-05-10T03:31:49;54364.66;;;-143.77;66.51
13836;BME280;6988;52.614;13.500;2023-05-10T03:36:42;54327.72;;;-143.77;66.63
13836;BME280;6988;52.614;13.500;2023-05-10T03:41:34;54352.34;;;-143.77;66.32
13836;BME280;6988;52.614;13.500;2023-05-10T03:46:27;54346.19;;;-143.77;66.44
13836;BME280;6988;52.614;13.500;2023-05-10T03:51:21;54327.72;;;-143.77;66.30
13836;BME280;6988;52.614;13.500;2023-05-10T04:02:53;54294.88;;;-143.77;65.63
13836;BME280;6988;52.614;13.500;2023-05-10T04:13:36;54303.09;;;-143.77;65.23
13836;BME280;6988;52.614;13.500;2023-05-10T04:24:23;54290.78;;;-143.77;64.58
13836;BME280;6988;52.614;13.500;2023-05-10T04:35:47;54282.56;;;-143.77;64.14
13836;BME280;6988;52.614;13.500;2023-05-10T04:40:39;54270.25;;;-143.77;63.47
13836;BME280;6988;52.614;13.500;2023-05-10T04:45:31;54290.78;;;-143.77;63.04
13836;BME280;6988;52.614;13.500;2023-05-10T04:50:23;54257.94;;;-143.77;63.29
13836;BME280;6988;52.614;13.500;2023-05-10T04:55:16;54249.75;;;-143.77;62.20
13836;BME280;6988;52.614;13.500;2023-05-10T05:00:10;54257.94;;;-143.77;62.40
13836;BME280;6988;52.614;13.500;2023-05-10T05:05:02;54196.41;;;-143.77;61.93
13836;BME280;6988;52.614;13.500;2023-05-10T05:09:54;54200.50;;;-143.77;61.48
13836;BME280;6988;52.614;13.500;2023-05-10T05:14:47;54200.50;;;-143.77;60.40
13836;BME280;6988;52.614;13.500;2023-05-10T05:19:39;54194.34;;;-143.77;60.70
13836;BME280;6988;52.614;13.500;2023-05-10T05:24:35;54157.41;;;-143.77;59.36
13836;BME280;6988;52.614;13.500;2023-05-10T05:29:28;54188.19;;;-143.77;59.92
13836;BME280;6988;52.614;13.500;2023-05-10T05:34:21;54112.28;;;-143.77;58.66
13836;BME280;6988;52.614;13.500;2023-05-10T05:39:13;54110.22;;;-143.77;57.79
13836;BME280;6988;52.614;13.500;2023-05-10T05:44:05;54138.94;;;-143.77;57.23
13836;BME280;6988;52.614;13.500;2023-05-10T05:48:57;54106.13;;;-143.77;57.29
13836;BME280;6988;52.614;13.500;2023-05-10T05:53:50;54102.00;;;-143.77;57.18
13836;BME280;6988;52.614;13.500;2023-05-10T05:58:42;54118.44;;;-143.77;56.15
13836;BME280;6988;52.614;13.500;2023-05-10T06:03:34;54108.16;;;-143.77;55.35
13836;BME280;6988;52.614;13.500;2023-05-10T06:08:25;54048.66;;;-143.77;54.52
13836;BME280;6988;52.614;13.500;2023-05-10T06:13:19;54089.72;;;-143.77;53.38
13836;BME280;6988;52.614;13.500;2023-05-10T06:18:10;54028.16;;;-143.77;54.48
13836;BME280;6988;52.614;13.500;2023-05-10T06:23:02;54005.59;;;-143.77;52.48
13836;BME280;6988;52.614;13.500;2023-05-10T06:27:54;53941.97;;;-143.77;52.95
13836;BME280;6988;52.614;13.500;2023-05-10T06:32:49;53911.22;;;-143.77;50.48
13836;BME280;6988;52.614;13.500;2023-05-10T06:57:42;53777.84;;;-143.77;47.37
13836;BME280;6988;52.614;13.500;2023-05-10T07:02:34;53788.13;;;-143.77;46.03
13836;BME280;6988;52.614;13.500;2023-05-10T07:07:26;53769.66;;;-143.77;46.30
13836;BME280;6988;52.614;13.500;2023-05-10T07:12:18;53790.16;;;-143.77;46.67
13836;BME280;6988;52.614;13.500;2023-05-10T07:17:11;53749.13;;;-143.77;45.58
13836;BME280;6988;52.614;13.500;2023-05-10T07:22:03;53728.63;;;-143.77;45.67
13836;BME280;6988;52.614;13.500;2023-05-10T07:26:55;53765.53;;;-143.77;45.40
13836;BME280;6988;52.614;13.500;2023-05-10T07:31:47;53747.09;;;-143.77;44.93
13836;BME280;6988;52.614;13.500;2023-05-10T07:36:40;53712.22;;;-143.77;45.54
13836;BME280;6988;52.614;13.500;2023-05-10T07:41:32;53677.34;;;-143.77;45.69
13836;BME280;6988;52.614;13.500;2023-05-10T07:46:24;53720.41;;;-143.77;44.60
13836;BME280;6988;52.614;13.500;2023-05-10T07:51:16;53662.97;;;-143.77;45.33
13836;BME280;6988;52.614;13.500;2023-05-10T07:56:23;53648.59;;;-143.77;43.71
13836;BME280;6988;52.614;13.500;2023-05-10T08:07:49;53687.59;;;-143.77;42.96
13836;BME280;6988;52.614;13.500;2023-05-10T08:12:43;53624.00;;;-143.77;42.89
13836;BME280;6988;52.614;13.500;2023-05-10T08:17:35;53626.03;;;-143.77;44.16
13836;BME280;6988;52.614;13.500;2023-05-10T08:22:26;53607.59;;;-143.77;42.89
13836;BME280;6988;52.614;13.500;2023-05-10T08:27:18;53650.66;;;-143.77;43.31
13836;BME280;6988;52.614;13.500;2023-05-10T08:32:11;53595.28;;;-143.77;42.88
13836;BME280;6988;52.614;13.500;2023-05-10T08:43:36;53564.50;;;-143.77;41.91
13836;BME280;6988;52.614;13.500;2023-05-10T08:48:33;53531.69;;;-143.77;41.58
13836;BME280;6988;52.614;13.500;2023-05-10T08:53:27;53517.31;;;-143.77;42.13
13836;BME280;6988;52.614;13.500;2023-05-10T08:58:20;53488.59;;;-143.77;41.62
13836;BME280;6988;52.614;13.500;2023-05-10T09:03:13;53478.34;;;-143.77;41.44
13836;BME280;6988;52.614;13.500;2023-05-10T09:08:08;53498.84;;;-143.77;41.47
13836;BME280;6988;52.614;13.500;2023-05-10T09:13:01;53484.50;;;-143.77;40.85
13836;BME280;6988;52.614;13.500;2023-05-10T09:17:54;53470.13;;;-143.77;41.82
13836;BME280;6988;52.614;13.500;2023-05-10T09:22:48;53457.81;;;-143.77;40.30
13836;BME280;6988;52.614;13.500;2023-05-10T09:27:45;53453.72;;;-143.77;40.86
13836;BME280;6988;52.614;13.500;2023-05-10T09:32:39;53416.78;;;-143.77;40.37
13836;BME280;6988;52.614;13.500;2023-05-10T09:37:31;53410.66;;;-143.77;39.57
13836;BME280;6988;52.614;13.500;2023-05-10T09:42:23;53453.72;;;-143.77;40.59
13836;BME280;6988;52.614;13.500;2023-05-10T09:47:18;53441.41;;;-143.77;40.06
13836;BME280;6988;52.614;13.500;2023-05-10T09:52:10;53418.84;;;-143.77;40.04
13836;BME280;6988;52.614;13.500;2023-05-10T09:57:02;53398.34;;;-143.77;38.40
13836;BME280;6988;52.614;13.500;2023-05-10T10:01:57;53338.84;;;-143.77;39.77
13836;BME280;6988;52.614;13.500;2023-05-10T10:07:01;53363.47;;;-143.77;40.08
13836;BME280;6988;52.614;13.500;2023-05-10T10:11:54;53375.78;;;-143.77;40.63
13836;BME280;6988;52.614;13.500;2023-05-10T10:16:48;53355.25;;;-143.77;37.99
13836;BME280;6988;52.614;13.500;2023-05-10T10:21:40;53353.22;;;-143.77;38.84
13836;BME280;6988;52.614;13.500;2023-05-10T10:26:35;53351.16;;;-143.77;38.42
13836;BME280;6988;52.614;13.500;2023-05-10T10:31:39;53347.06;;;-143.77;39.44
13836;BME280;6988;52.614;13.500;2023-05-10T10:36:33;53306.03;;;-143.77;38.41
13836;BME280;6988;52.614;13.500;2023-05-10T10:41:34;53289.63;;;-143.77;38.44
13836;BME280;6988;52.614;13.500;2023-05-10T10:46:27;53318.34;;;-143.77;38.28
13836;BME280;6988;52.614;13.500;2023-05-10T10:51:18;53303.97;;;-143.77;37.76
13836;BME280;6988;52.614;13.500;2023-05-10T10:56:12;53332.69;;;-143.77;38.12
13836;BME280;6988;52.614;13.500;2023-05-10T11:01:15;53310.13;;;-143.77;37.52
13836;BME280;6988;52.614;13.500;2023-05-10T11:06:07;53301.91;;;-143.77;38.83
13836;BME280;6988;52.614;13.500;2023-05-10T11:11:06;53306.03;;;-143.77;37.66
13836;BME280;6988;52.614;13.500;2023-05-10T11:16:24;53318.34;;;-143.77;38.00
13836;BME280;6988;52.614;13.500;2023-05-10T11:21:17;53338.84;;;-143.77;37.91
13836;BME280;6988;52.614;13.500;2023-05-10T11:26:09;53299.88;;;-143.77;38.03
13836;BME280;6988;52.614;13.500;2023-05-10T11:31:01;53287.56;;;-143.77;38.19
13836;BME280;6988;52.614;13.500;2023-05-10T11:35:54;53273.19;;;-143.77;37.05
13836;BME280;6988;52.614;13.500;2023-05-10T11:40:46;53189.09;;;-143.77;35.18
13836;BME280;6988;52.614;13.500;2023-05-10T11:45:41;53240.38;;;-143.77;35.47
13836;BME280;6988;52.614;13.500;2023-05-10T11:50:33;53228.06;;;-143.77;35.92
13836;BME280;6988;52.614;13.500;2023-05-10T11:55:27;53297.81;;;-143.77;37.17
13836;BME280;6988;52.614;13.500;2023-05-10T12:00:21;53211.66;;;-143.77;35.67
13836;BME280;6988;52.614;13.500;2023-05-10T12:05:13;53199.34;;;-143.77;35.33
13836;BME280;6988;52.614;13.500;2023-05-10T12:10:08;53185.00;;;-143.77;35.56
13836;BME280;6988;52.614;13.500;2023-05-10T12:15:03;53148.06;;;-143.77;35.80
13836;BME280;6988;52.614;13.500;2023-05-10T12:19:59;53211.66;;;-143.77;34.62
13836;BME280;6988;52.614;13.500;2023-05-10T12:25:05;53150.13;;;-143.77;34.72
13836;BME280;6988;52.614;13.500;2023-05-10T12:29:59;53100.91;;;-143.77;33.57
13836;BME280;6988;52.614;13.500;2023-05-10T12:34:53;53156.28;;;-143.77;34.96
13836;BME280;6988;52.614;13.500;2023-05-10T12:39:45;53217.81;;;-143.77;34.96
13836;BME280;6988;52.614;13.500;2023-05-10T12:44:37;53189.09;;;-143.77;35.95
13836;BME280;6988;52.614;13.500;2023-05-10T12:49:29;53223.97;;;-143.77;34.76
13836;BME280;6988;52.614;13.500;2023-05-10T12:54:22;53182.94;;;-143.77;35.61
13836;BME280;6988;52.614;13.500;2023-05-10T12:59:14;53174.75;;;-143.77;34.98
13836;BME280;6988;52.614;13.500;2023-05-10T13:04:06;53158.34;;;-143.77;36.03
13836;BME280;6988;52.614;13.500;2023-05-10T13:08:58;53166.53;;;-143.77;35.10
13836;BME280;6988;52.614;13.500;2023-05-10T13:13:52;53189.09;;;-143.77;34.37
13836;BME280;6988;52.614;13.500;2023-05-10T13:18:43;53141.91;;;-143.77;36.08
13836;BME280;6988;52.614;13.500;2023-05-10T13:23:35;53178.84;;;-143.77;35.28
13836;BME280;6988;52.614;13.500;2023-05-10T13:28:27;53215.78;;;-143.77;34.55
13836;BME280;6988;52.614;13.500;2023-05-10T13:33:21;53215.78;;;-143.77;34.63
13836;BME280;6988;52.614;13.500;2023-05-10T13:38:13;53211.66;;;-143.77;34.93
13836;BME280;6988;52.614;13.500;2023-05-10T13:43:05;53234.22;;;-143.77;34.16
13836;BME280;6988;52.614;13.500;2023-05-10T13:47:57;53238.34;;;-143.77;34.20
13836;BME280;6988;52.614;13.500;2023-05-10T13:52:51;53281.41;;;-143.77;33.61
13836;BME280;6988;52.614;13.500;2023-05-10T14:02:59;53277.31;;;-143.77;33.98
13836;BME280;6988;52.614;13.500;2023-05-10T14:07:53;53277.31;;;-143.77;32.42
13836;BME280;6988;52.614;13.500;2023-05-10T14:12:45;53277.31;;;-143.77;32.88
13836;BME280;6988;52.614;13.500;2023-05-10T14:17:37;53314.22;;;-143.77;33.20
13836;BME280;6988;52.614;13.500;2023-05-10T14:22:29;53244.50;;;-143.77;32.07
13836;BME280;6988;52.614;13.500;2023-05-10T14:33:54;53232.19;;;-143.77;32.05
13836;BME280;6988;52.614;13.500;2023-05-10T14:38:45;53187.06;;;-143.77;31.70
13836;BME280;6988;52.614;13.500;2023-05-10T14:43:37;53252.69;;;-143.77;32.14
13836;BME280;6988;52.614;13.500;2023-05-10T14:48:29;53273.19;;;-143.77;31.46
13836;BME280;6988;52.614;13.500;2023-05-10T14:53:22;53330.63;;;-143.77;33.52
13836;BME280;6988;52.614;13.500;2023-05-10T14:58:14;53324.50;;;-143.77;32.63
13836;BME280;6988;52.614;13.500;2023-05-10T15:03:07;53332.69;;;-143.77;34.80
13836;BME280;6988;52.614;13.500;2023-05-10T15:08:00;53375.78;;;-143.77;33.98
13836;BME280;6988;52.614;13.500;2023-05-10T15:12:56;53404.50;;;-143.77;33.87
13836;BME280;6988;52.614;13.500;2023-05-10T15:23:38;53406.53;;;-143.77;35.11
13836;BME280;6988;52.614;13.500;2023-05-10T15:28:32;53490.66;;;-143.77;34.80
13836;BME280;6988;52.614;13.500;2023-05-10T15:33:23;53449.63;;;-143.77;34.97
13836;BME280;6988;52.614;13.500;2023-05-10T15:38:16;53349.09;;;-143.77;34.74
13836;BME280;6988;52.614;13.500;2023-05-10T15:43:07;53349.09;;;-143.77;33.96
13836;BME280;6988;52.614;13.500;2023-05-10T15:54:28;53478.34;;;-143.77;34.76
13836;BME280;6988;52.614;13.500;2023-05-10T15:59:20;53515.25;;;-143.77;34.99
13836;BME280;6988;52.614;13.500;2023-05-10T16:04:12;53558.34;;;-143.77;35.75
13836;BME280;6988;52.614;13.500;2023-05-10T16:09:03;53492.69;;;-143.77;36.65
13836;BME280;6988;52.614;13.500;2023-05-10T16:13:57;53519.38;;;-143.77;36.32
13836;BME280;6988;52.614;13.500;2023-05-10T16:18:48;53539.88;;;-143.77;35.88
13836;BME280;6988;52.614;13.500;2023-05-10T16:23:40;53580.91;;;-143.77;36.71
13836;BME280;6988;52.614;13.500;2023-05-10T16:35:07;53599.38;;;-143.77;37.51
13836;BME280;6988;52.614;13.500;2023-05-10T16:40:00;53613.72;;;-143.77;37.63
13836;BME280;6988;52.614;13.500;2023-05-10T16:44:53;53624.00;;;-143.77;38.00
13836;BME280;6988;52.614;13.500;2023-05-10T16:49:45;53617.84;;;-143.77;38.21
13836;BME280;6988;52.614;13.500;2023-05-10T16:54:38;53599.38;;;-143.77;38.70
13836;BME280;6988;52.614;13.500;2023-05-10T16:59:30;53605.53;;;-143.77;38.89
13836;BME280;6988;52.614;13.500;2023-05-10T17:04:22;53595.28;;;-143.77;37.78
13836;BME280;6988;52.614;13.500;2023-05-10T17:09:14;53613.72;;;-143.77;38.19
13836;BME280;6988;52.614;13.500;2023-05-10T17:14:07;53650.66;;;-143.77;39.36
13836;BME280;6988;52.614;13.500;2023-05-10T17:18:59;53617.84;;;-143.77;43.38
13836;BME280;6988;52.614;13.500;2023-05-10T17:23:51;53597.31;;;-143.77;45.63
13836;BME280;6988;52.614;13.500;2023-05-10T17:28:43;53621.94;;;-143.77;47.39
13836;BME280;6988;52.614;13.500;2023-05-10T17:33:36;53683.50;;;-143.77;48.40
13836;BME280;6988;52.614;13.500;2023-05-10T17:38:28;53662.97;;;-143.77;49.53
13836;BME280;6988;52.614;13.500;2023-05-10T17:43:20;53677.34;;;-143.77;50.70
13836;BME280;6988;52.614;13.500;2023-05-10T17:48:12;53693.75;;;-143.77;51.44
13836;BME280;6988;52.614;13.500;2023-05-10T17:53:06;53722.47;;;-143.77;52.37
13836;BME280;6988;52.614;13.500;2023-05-10T17:57:57;53708.09;;;-143.77;53.02
13836;BME280;6988;52.614;13.500;2023-05-10T18:02:49;53699.91;;;-143.77;53.88
13836;BME280;6988;52.614;13.500;2023-05-10T18:07:41;53736.81;;;-143.77;54.38
13836;BME280;6988;52.614;13.500;2023-05-10T18:12:34;53749.13;;;-143.77;55.00
13836;BME280;6988;52.614;13.500;2023-05-10T18:17:26;53728.63;;;-143.77;55.34
13836;BME280;6988;52.614;13.500;2023-05-10T18:22:18;53757.34;;;-143.77;55.84
13836;BME280;6988;52.614;13.500;2023-05-10T18:27:10;53751.19;;;-143.77;55.97
13836;BME280;6988;52.614;13.500;2023-05-10T18:32:04;53759.41;;;-143.77;56.93
13836;BME280;6988;52.614;13.500;2023-05-10T18:36:56;53753.25;;;-143.77;57.36
13836;BME280;6988;52.614;13.500;2023-05-10T18:41:48;53788.13;;;-143.77;57.90
13836;BME280;6988;52.614;13.500;2023-05-10T18:46:44;53790.16;;;-143.77;57.72
13836;BME280;6988;52.614;13.500;2023-05-10T18:57:47;53810.69;;;-143.77;58.28
13836;BME280;6988;52.614;13.500;2023-05-10T19:02:39;53786.06;;;-143.77;58.46
13836;BME280;6988;52.614;13.500;2023-05-10T19:07:31;53810.69;;;-143.77;59.07
13836;BME280;6988;52.614;13.500;2023-05-10T19:12:23;53794.28;;;-143.77;59.13
13836;BME280;6988;52.614;13.500;2023-05-10T19:17:16;53818.88;;;-143.77;59.27
13836;BME280;6988;52.614;13.500;2023-05-10T19:27:15;53861.97;;;-143.77;61.30
13836;BME280;6988;52.614;13.500;2023-05-10T19:32:07;53872.22;;;-143.77;61.31
13836;BME280;6988;52.614;13.500;2023-05-10T19:37:02;53845.56;;;-143.77;61.19
13836;BME280;6988;52.614;13.500;2023-05-10T19:41:53;53868.13;;;-143.77;61.17
13836;BME280;6988;52.614;13.500;2023-05-10T19:46:45;53855.81;;;-143.77;61.44
13836;BME280;6988;52.614;13.500;2023-05-10T19:51:37;53851.72;;;-143.77;62.09
13836;BME280;6988;52.614;13.500;2023-05-10T19:56:31;53880.44;;;-143.77;62.17
13836;BME280;6988;52.614;13.500;2023-05-10T20:07:55;53892.75;;;-143.77;63.02
13836;BME280;6988;52.614;13.500;2023-05-10T20:12:49;53884.53;;;-143.77;63.56
13836;BME280;6988;52.614;13.500;2023-05-10T20:17:41;53876.34;;;-143.77;63.86
13836;BME280;6988;52.614;13.500;2023-05-10T20:22:34;53888.63;;;-143.77;63.92
13836;BME280;6988;52.614;13.500;2023-05-10T20:27:26;53903.00;;;-143.77;63.92
13836;BME280;6988;52.614;13.500;2023-05-10T20:32:20;53913.25;;;-143.77;63.94
13836;BME280;6988;52.614;13.500;2023-05-10T20:37:11;53933.78;;;-143.77;64.08
13836;BME280;6988;52.614;13.500;2023-05-10T20:47:03;53919.41;;;-143.77;64.54
13836;BME280;6988;52.614;13.500;2023-05-10T20:51:57;53950.19;;;-143.77;64.92
13836;BME280;6988;52.614;13.500;2023-05-10T20:56:49;53950.19;;;-143.77;64.89
13836;BME280;6988;52.614;13.500;2023-05-10T21:01:41;53954.28;;;-143.77;65.09
13836;BME280;6988;52.614;13.500;2023-05-10T21:06:33;53946.09;;;-143.77;65.36
13836;BME280;6988;52.614;13.500;2023-05-10T21:11:26;53976.88;;;-143.77;65.75
13836;BME280;6988;52.614;13.500;2023-05-10T21:22:49;53962.50;;;-143.77;66.30
13836;BME280;6988;52.614;13.500;2023-05-10T21:27:43;53972.75;;;-143.77;66.54
13836;BME280;6988;52.614;13.500;2023-05-10T21:32:35;53974.81;;;-143.77;67.01
13836;BME280;6988;52.614;13.500;2023-05-10T21:37:27;54003.53;;;-143.77;67.17
13836;BME280;6988;52.614;13.500;2023-05-10T21:42:19;54009.69;;;-143.77;67.22
13836;BME280;6988;52.614;13.500;2023-05-10T22:05:02;54030.22;;;-143.77;68.26
13836;BME280;6988;52.614;13.500;2023-05-10T22:09:54;54075.34;;;-143.77;68.30
13836;BME280;6988;52.614;13.500;2023-05-10T22:14:46;54040.47;;;-143.77;68.91
13836;BME280;6988;52.614;13.500;2023-05-10T22:19:38;54073.28;;;-143.77;69.21
13836;BME280;6988;52.614;13.500;2023-05-10T22:24:31;54071.25;;;-143.77;69.40
13836;BME280;6988;52.614;13.500;2023-05-10T22:29:24;54054.81;;;-143.77;69.87
13836;BME280;6988;52.614;13.500;2023-05-10T22:34:15;54050.72;;;-143.77;69.88
13836;BME280;6988;52.614;13.500;2023-05-10T22:39:08;54083.56;;;-143.77;70.13
13836;BME280;6988;52.614;13.500;2023-05-10T22:44:02;54114.31;;;-143.77;70.31
13836;BME280;6988;52.614;13.500;2023-05-10T22:48:54;54083.56;;;-143.77;70.00
13836;BME280;6988;52.614;13.500;2023-05-10T22:53:46;54079.44;;;-143.77;70.43
13836;BME280;6988;52.614;13.500;2023-05-10T22:58:38;54130.75;;;-143.77;71.10
13836;BME280;6988;52.614;13.500;2023-05-10T23:03:32;54138.94;;;-143.77;71.53
13836;BME280;6988;52.614;13.500;2023-05-10T23:08:24;54108.16;;;-143.77;71.84
13836;BME280;6988;52.614;13.500;2023-05-10T23:13:15;54097.91;;;-143.77;72.04
13836;BME280;6988;52.614;13.500;2023-05-10T23:18:09;54118.44;;;-143.77;72.04
13836;BME280;6988;52.614;13.500;2023-05-10T23:23:03;54151.25;;;-143.77;72.75
13836;BME280;6988;52.614;13.500;2023-05-10T23:27:57;54130.75;;;-143.77;72.90
13836;BME280;6988;52.614;13.500;2023-05-10T23:32:48;54153.31;;;-143.77;73.27
13836;BME280;6988;52.614;13.500;2023-05-10T23:37:40;54151.25;;;-143.77;74.91
13836;BME280;6988;52.614;13.500;2023-05-10T23:42:34;54147.16;;;-143.77;75.97
13836;BME280;6988;52.614;13.500;2023-05-10T23:47:25;54157.41;;;-143.77;75.44
13836;BME280;6988;52.614;13.500;2023-05-10T23:52:17;54145.09;;;-143.77;74.87
13836;BME280;6988;52.614;13.500;2023-05-10T23:57:12;54153.31;;;-143.77;74.39
